Terminal Aerodrome Forecast
Issued by NWS Blacksburg, VA

Current Version | Previous Version | Graphics & Text | Print | Product List | Glossary On
Versions: 1 2 3 4 5 6 7 8 9 10 11 12 13 14
000
FTUS41 KRNK 171129
TAFBLF
TAF
KBLF 171129Z 1712/1812 13010G18KT P6SM SCT250
     FM180000 13008KT P6SM SCT250
     FM180600 12008KT P6SM BKN250=

USA.gov is the U.S. government's official web portal to all federal, state and local government web resources and services.